Bramhope, United Kingdom
Current Conditions -  °F | °C
As of 10:20 PM on Friday 19 Dec 2014 (Local Time) from EGNM Reporting Station
Rain Showers Rain Showers  
Wind Chill: 32°   Ceiling: Unl
Heat Index: 41°   Visibility: 6mi
Dew Point: 37°   Wind: 21mph
Humidity: 87%   Direction: 270°W
Pressure: 29.97"   Gusts: NA
Location:  53.88°N, 1.62°W
Report Text: EGNM 192220Z 27018KT 230V300 9999 -SHRA SCT030 05/03 Q1015
Loading
Personal Weather Stations






























Interactive Weather Map New forecast layout! Learn more

10-Day Weather Forecast

Advertisements
Track Severe Weather on mobile